createdAt,value
2022-09-06T00:02:22.225Z,17.17
2022-09-06T00:04:50.418Z,15.07
2022-09-06T00:07:18.520Z,17.05
2022-09-06T00:09:46.598Z,16.02
2022-09-06T00:12:16.106Z,15.63
2022-09-06T00:14:44.225Z,15.75
2022-09-06T00:17:12.486Z,16.80
2022-09-06T00:19:40.568Z,16.13
2022-09-06T00:22:08.679Z,17.02
2022-09-06T00:24:37.390Z,16.23
2022-09-06T00:27:06.324Z,15.63
2022-09-06T00:29:36.596Z,17.38
2022-09-06T00:32:05.088Z,16.70
2022-09-06T00:34:33.352Z,15.50
2022-09-06T00:37:01.620Z,15.98
2022-09-06T00:39:29.771Z,18.05
2022-09-06T00:41:57.958Z,15.90
2022-09-06T00:44:26.098Z,15.48
2022-09-06T00:46:56.475Z,15.23
2022-09-06T00:49:27.241Z,14.68
2022-09-06T00:51:58.386Z,16.27
2022-09-06T00:54:26.990Z,16.98
2022-09-06T00:56:56.901Z,17.90
2022-09-06T00:59:27.031Z,17.17
2022-09-06T01:01:56.712Z,15.38
2022-09-06T01:04:25.162Z,15.45
2022-09-06T01:07:02.931Z,17.05
2022-09-06T01:09:45.391Z,16.63
2022-09-06T01:12:33.942Z,15.10
2022-09-06T01:15:16.228Z,16.48
2022-09-06T01:17:54.907Z,15.18
2022-09-06T01:20:42.435Z,14.90
2022-09-06T01:23:47.179Z,16.30
2022-09-06T01:26:42.258Z,15.18
2022-09-06T01:29:20.665Z,15.45
2022-09-06T01:31:53.580Z,16.00
2022-09-06T01:34:29.960Z,15.63
2022-09-06T01:37:10.907Z,15.02
2022-09-06T01:39:41.029Z,16.02
2022-09-06T01:42:13.359Z,15.55
2022-09-06T01:44:45.877Z,16.23
2022-09-06T01:47:37.127Z,15.85
2022-09-06T01:50:30.311Z,17.92
2022-09-06T01:53:09.310Z,16.85
2022-09-06T01:55:45.057Z,15.13
2022-09-06T01:58:40.391Z,16.90
2022-09-06T02:01:21.224Z,15.70
2022-09-06T02:03:57.494Z,15.05
2022-09-06T02:06:29.820Z,16.73
2022-09-06T02:09:04.533Z,16.52
2022-09-06T02:11:43.035Z,18.63
2022-09-06T02:14:15.593Z,15.77
2022-09-06T02:16:49.201Z,16.55
2022-09-06T02:19:22.530Z,17.40
2022-09-06T02:21:53.076Z,15.52
2022-09-06T02:24:24.471Z,17.92
2022-09-06T02:26:52.841Z,14.63
2022-09-06T02:29:21.360Z,15.50
2022-09-06T02:31:54.948Z,14.73
2022-09-06T02:34:23.507Z,14.85
2022-09-06T02:36:51.707Z,16.13
2022-09-06T02:39:19.903Z,16.08
2022-09-06T02:41:49.355Z,16.48
2022-09-06T02:44:17.479Z,15.80
2022-09-06T02:46:45.621Z,17.25
2022-09-06T02:49:15.103Z,15.15
2022-09-06T02:51:43.265Z,18.40
2022-09-06T02:54:11.584Z,17.95
2022-09-06T02:56:39.680Z,16.48
2022-09-06T02:59:07.753Z,16.95
2022-09-06T03:01:35.988Z,16.65
2022-09-06T03:04:04.485Z,17.42
2022-09-06T03:06:34.530Z,16.52
2022-09-06T03:09:02.674Z,18.38
2022-09-06T03:11:30.764Z,17.13
2022-09-06T03:13:58.877Z,18.10
2022-09-06T03:16:27.111Z,15.90
2022-09-06T03:18:55.292Z,16.35
2022-09-06T03:21:23.580Z,13.60
2022-09-06T03:23:53.169Z,15.25
2022-09-06T03:26:21.255Z,15.65
2022-09-06T03:28:50.287Z,16.15
2022-09-06T03:31:18.457Z,14.70
2022-09-06T03:33:46.632Z,14.60
2022-09-06T03:36:15.737Z,15.52
2022-09-06T03:38:43.809Z,16.63
2022-09-06T03:41:13.611Z,14.88
2022-09-06T03:43:41.705Z,17.48
2022-09-06T03:46:09.867Z,14.30
2022-09-06T03:48:38.143Z,17.98
2022-09-06T03:51:06.438Z,15.25
2022-09-06T03:53:34.606Z,15.82
2022-09-06T03:56:02.840Z,15.98
2022-09-06T03:58:33.299Z,16.40
2022-09-06T04:01:03.677Z,16.10
2022-09-06T04:03:31.982Z,16.23
2022-09-06T04:06:00.088Z,14.95
2022-09-06T04:08:28.578Z,15.30
2022-09-06T04:10:57.670Z,15.05
2022-09-06T04:13:27.049Z,15.00
2022-09-06T04:15:56.606Z,14.70
2022-09-06T04:18:25.887Z,16.55
2022-09-06T04:20:56.009Z,13.38
2022-09-06T04:23:25.639Z,15.25
2022-09-06T04:25:55.809Z,15.13
2022-09-06T04:28:24.791Z,16.42
2022-09-06T04:31:03.296Z,14.88
2022-09-06T04:33:34.882Z,13.35
2022-09-06T04:36:05.056Z,16.33
2022-09-06T04:38:37.256Z,15.65
2022-09-06T04:41:06.289Z,18.08
2022-09-06T04:43:34.474Z,14.95
2022-09-06T04:46:10.402Z,15.68
2022-09-06T04:48:38.520Z,17.77
2022-09-06T04:51:06.933Z,16.00
2022-09-06T04:53:35.013Z,17.02
2022-09-06T04:56:03.566Z,18.30
2022-09-06T04:58:31.960Z,14.35
2022-09-06T05:01:00.212Z,14.75
2022-09-06T05:03:29.765Z,16.13
2022-09-06T05:06:06.468Z,14.00
2022-09-06T05:08:34.613Z,13.10
2022-09-06T05:11:02.748Z,15.55
2022-09-06T05:13:30.911Z,15.98
2022-09-06T05:16:01.986Z,15.45
2022-09-06T05:18:31.642Z,16.10
2022-09-06T05:21:00.044Z,15.75
2022-09-06T05:23:28.932Z,16.23
2022-09-06T05:25:57.002Z,16.63
2022-09-06T05:28:25.156Z,15.93
2022-09-06T05:30:53.215Z,20.45
2022-09-06T05:33:23.751Z,16.88
2022-09-06T05:35:53.181Z,15.20
2022-09-06T05:38:21.361Z,14.98
2022-09-06T05:40:49.442Z,16.25
2022-09-06T05:43:17.602Z,16.00
2022-09-06T05:45:46.107Z,15.50
2022-09-06T05:48:14.357Z,16.17
2022-09-06T05:50:42.519Z,15.00
2022-09-06T05:53:11.975Z,15.00
2022-09-06T05:55:43.007Z,14.60
2022-09-06T05:58:11.598Z,15.43
2022-09-06T06:00:39.984Z,14.82
2022-09-06T06:03:08.011Z,16.98
2022-09-06T06:05:36.222Z,15.88
2022-09-06T06:08:04.444Z,15.65
2022-09-06T06:10:38.453Z,16.58
2022-09-06T06:13:06.864Z,16.58
2022-09-06T06:15:35.014Z,51.45
2022-09-06T06:18:03.059Z,103.90
2022-09-06T06:20:31.204Z,65.35
2022-09-06T06:22:59.280Z,45.58
2022-09-06T06:25:27.372Z,53.58
2022-09-06T06:27:56.912Z,48.22
2022-09-06T06:30:24.984Z,35.75
2022-09-06T06:32:53.061Z,30.02
2022-09-06T06:35:21.141Z,21.65
2022-09-06T06:37:49.189Z,27.63
2022-09-06T06:40:17.529Z,19.10
2022-09-06T06:42:45.617Z,17.58
2022-09-06T06:45:15.228Z,18.92
2022-09-06T06:47:43.604Z,18.80
2022-09-06T06:50:11.920Z,20.27
2022-09-06T06:52:40.017Z,17.65
2022-09-06T06:55:08.689Z,16.95
2022-09-06T06:57:36.798Z,18.00
2022-09-06T07:00:06.271Z,18.65
2022-09-06T07:02:36.076Z,18.20
2022-09-06T07:07:52.399Z,20.92
2022-09-06T07:10:35.797Z,19.05
2022-09-06T07:13:04.645Z,20.17
2022-09-06T07:15:32.699Z,19.95
2022-09-06T07:18:02.573Z,21.35
2022-09-06T07:20:30.973Z,19.83
2022-09-06T07:25:53.222Z,22.08
2022-09-06T07:28:21.425Z,20.67
2022-09-06T07:30:49.515Z,23.02
2022-09-06T07:33:18.975Z,20.60
2022-09-06T07:35:59.551Z,20.98
2022-09-06T07:38:28.732Z,21.08
2022-09-06T07:40:58.038Z,20.25
2022-09-06T07:43:26.591Z,22.08
2022-09-06T07:46:02.596Z,21.15
2022-09-06T07:48:33.576Z,21.08
2022-09-06T07:51:06.727Z,20.48
2022-09-06T07:53:35.772Z,19.15
2022-09-06T07:56:06.246Z,19.60
2022-09-06T07:58:34.923Z,22.50
2022-09-06T08:01:16.678Z,18.67
2022-09-06T08:03:47.560Z,20.38
2022-09-06T08:06:16.109Z,20.67
2022-09-06T08:08:59.835Z,19.38
2022-09-06T08:11:30.428Z,19.65
2022-09-06T08:14:00.211Z,20.73
2022-09-06T08:16:29.830Z,22.08
2022-09-06T08:19:01.172Z,20.63
2022-09-06T08:21:32.130Z,21.58
2022-09-06T08:24:01.792Z,21.25
2022-09-06T08:26:31.252Z,20.05
2022-09-06T08:29:01.230Z,21.95
2022-09-06T08:31:30.536Z,22.60
2022-09-06T08:34:01.460Z,22.95
2022-09-06T08:36:30.811Z,23.15
2022-09-06T08:38:59.328Z,26.08
2022-09-06T08:41:29.365Z,24.10
2022-09-06T08:46:56.091Z,29.27
2022-09-06T08:49:26.617Z,27.40
2022-09-06T08:52:18.345Z,29.60
2022-09-06T08:54:54.626Z,31.25
2022-09-06T08:57:40.087Z,30.60
2022-09-06T09:00:11.694Z,34.05
2022-09-06T09:02:45.197Z,32.00
2022-09-06T09:05:34.096Z,32.15
2022-09-06T09:08:09.078Z,33.17
2022-09-06T09:10:43.469Z,32.42
2022-09-06T09:13:21.521Z,30.92
2022-09-06T09:15:49.629Z,30.00
2022-09-06T09:18:24.067Z,31.10
2022-09-06T09:20:53.931Z,31.77
2022-09-06T09:23:22.119Z,30.83
2022-09-06T09:25:53.463Z,28.95
2022-09-06T09:28:24.797Z,26.58
2022-09-06T09:30:55.098Z,26.65
2022-09-06T09:33:29.982Z,27.85
2022-09-06T09:36:01.883Z,27.48
2022-09-06T09:38:31.970Z,26.75
2022-09-06T09:41:02.340Z,25.65
2022-09-06T09:43:32.607Z,27.42
2022-09-06T09:46:13.219Z,26.38
2022-09-06T09:48:42.911Z,25.92
2022-09-06T09:51:30.712Z,26.30
2022-09-06T09:54:00.124Z,24.15
2022-09-06T09:56:47.447Z,22.30
2022-09-06T09:59:39.002Z,25.77
2022-09-06T10:02:21.615Z,23.20
2022-09-06T10:04:54.916Z,25.45
2022-09-06T10:07:25.474Z,22.52
2022-09-06T10:10:00.230Z,26.95
2022-09-06T10:12:31.497Z,27.33
2022-09-06T10:15:02.475Z,26.15
2022-09-06T10:17:35.391Z,26.27
2022-09-06T10:20:09.181Z,24.63
2022-09-06T10:22:49.507Z,23.35
2022-09-06T10:25:34.082Z,26.58
2022-09-06T10:28:21.617Z,21.80
2022-09-06T10:31:11.075Z,25.27
2022-09-06T10:33:50.651Z,25.20
2022-09-06T10:36:22.589Z,24.58
2022-09-06T10:38:59.298Z,24.58
2022-09-06T10:41:43.355Z,23.27
2022-09-06T10:44:27.961Z,24.30
2022-09-06T10:47:06.036Z,21.92
2022-09-06T10:49:36.413Z,25.70
2022-09-06T10:52:08.460Z,26.88
2022-09-06T10:54:41.450Z,24.70
2022-09-06T11:00:12.862Z,23.83
2022-09-06T11:02:47.326Z,24.38
2022-09-06T11:11:05.132Z,23.73
2022-09-06T11:13:33.866Z,22.08
2022-09-06T11:16:08.761Z,19.85
2022-09-06T11:18:41.343Z,23.20
2022-09-06T11:21:40.383Z,22.15
2022-09-06T11:24:14.142Z,24.58
2022-09-06T11:26:47.014Z,22.73
2022-09-06T11:29:26.645Z,23.52
2022-09-06T11:34:54.741Z,24.35
2022-09-06T11:37:27.138Z,28.98
2022-09-06T11:43:16.715Z,22.98
2022-09-06T11:45:50.541Z,23.20
2022-09-06T11:49:02.543Z,22.67
2022-09-06T11:51:38.901Z,25.40
2022-09-06T11:54:25.495Z,24.35
2022-09-06T11:56:58.833Z,26.92
2022-09-06T11:59:44.679Z,26.30
2022-09-06T12:02:32.635Z,24.75
2022-09-06T12:05:27.134Z,23.23
2022-09-06T12:08:28.138Z,24.05
2022-09-06T12:11:30.473Z,25.52
2022-09-06T12:14:04.364Z,24.70
2022-09-06T12:17:07.197Z,21.60
2022-09-06T12:19:45.918Z,24.90
2022-09-06T12:23:03.338Z,25.40
2022-09-06T12:25:54.948Z,24.38
2022-09-06T12:28:48.380Z,23.13
2022-09-06T12:31:38.559Z,27.00
2022-09-06T12:34:14.481Z,25.65
2022-09-06T12:36:58.399Z,24.35
2022-09-06T12:39:26.792Z,24.40
2022-09-06T12:41:58.497Z,26.13
2022-09-06T12:44:33.076Z,25.92
2022-09-06T12:47:07.624Z,24.95
2022-09-06T12:49:35.856Z,24.13
2022-09-06T12:52:10.464Z,27.15
2022-09-06T12:54:47.644Z,25.40
2022-09-06T12:57:20.073Z,24.15
2022-09-06T12:59:54.696Z,23.80
2022-09-06T13:02:27.651Z,26.77
2022-09-06T13:05:01.975Z,27.67
2022-09-06T13:07:31.748Z,24.15
2022-09-06T13:10:00.097Z,28.75
2022-09-06T13:12:32.891Z,23.90
2022-09-06T13:15:05.742Z,27.25
2022-09-06T13:17:34.567Z,24.08
2022-09-06T13:20:12.559Z,26.20
2022-09-06T13:22:48.921Z,24.70
2022-09-06T13:25:24.940Z,25.88
2022-09-06T13:27:57.709Z,24.88
2022-09-06T13:30:35.205Z,23.23
2022-09-06T13:33:04.400Z,27.13
2022-09-06T13:35:35.469Z,25.25
2022-09-06T13:38:32.401Z,25.75
2022-09-06T13:41:16.889Z,23.85
2022-09-06T13:43:48.030Z,28.05
2022-09-06T13:46:16.291Z,26.88
2022-09-06T13:48:45.034Z,26.92
2022-09-06T13:51:13.428Z,27.55
2022-09-06T13:53:42.867Z,26.20
2022-09-06T13:56:11.990Z,27.98
2022-09-06T13:58:39.988Z,24.05
2022-09-06T14:01:09.983Z,24.48
2022-09-06T14:03:41.724Z,26.95
2022-09-06T14:06:10.551Z,24.05
2022-09-06T14:09:05.360Z,26.27
2022-09-06T14:11:29.303Z,28.13
2022-09-06T14:13:57.436Z,24.58
2022-09-06T14:16:25.901Z,25.67
2022-09-06T14:18:54.101Z,28.30
2022-09-06T14:21:22.318Z,26.27
2022-09-06T14:23:52.202Z,23.48
2022-09-06T14:26:21.555Z,26.77
2022-09-06T14:28:51.712Z,27.35
2022-09-06T14:31:21.281Z,25.10
2022-09-06T14:33:49.817Z,23.92
2022-09-06T14:36:19.860Z,22.48
2022-09-06T14:38:48.960Z,22.85
2022-09-06T14:41:18.930Z,28.55
2022-09-06T14:43:52.180Z,25.83
2022-09-06T14:46:22.007Z,23.08
2022-09-06T14:48:56.584Z,24.20
2022-09-06T14:51:24.886Z,28.08
2022-09-06T14:53:55.348Z,28.15
2022-09-06T14:56:24.057Z,25.58
2022-09-06T14:58:57.519Z,24.92
2022-09-06T15:01:28.576Z,25.48
2022-09-06T15:03:58.434Z,24.02
2022-09-06T15:06:28.022Z,23.90
2022-09-06T15:08:59.303Z,25.55
2022-09-06T15:11:32.524Z,24.20
2022-09-06T15:14:02.539Z,24.83
2022-09-06T15:16:31.145Z,25.58
2022-09-06T15:18:59.567Z,27.55
2022-09-06T15:21:27.727Z,24.85
2022-09-06T15:23:56.916Z,25.92
2022-09-06T15:26:25.219Z,23.90
2022-09-06T15:28:53.679Z,22.65
2022-09-06T15:31:23.334Z,26.75
2022-09-06T15:33:52.882Z,24.90
2022-09-06T15:36:21.933Z,24.67
2022-09-06T15:38:52.316Z,26.05
2022-09-06T15:41:23.470Z,25.98
2022-09-06T15:43:54.895Z,25.25
2022-09-06T15:46:43.147Z,26.70
2022-09-06T15:49:13.271Z,25.15
2022-09-06T15:51:43.033Z,23.92
2022-09-06T15:54:13.028Z,23.42
2022-09-06T15:56:40.377Z,26.20
2022-09-06T15:59:08.737Z,25.17
2022-09-06T16:01:38.650Z,28.67
2022-09-06T16:04:08.021Z,30.30
2022-09-06T16:06:39.652Z,28.08
2022-09-06T16:09:10.010Z,28.63
2022-09-06T16:11:39.017Z,27.02
2022-09-06T16:14:09.413Z,27.05
2022-09-06T16:16:40.378Z,27.17
2022-09-06T16:19:09.916Z,25.42
2022-09-06T16:21:40.056Z,27.88
2022-09-06T16:24:10.605Z,25.50
2022-09-06T16:26:40.535Z,26.17
2022-09-06T16:29:10.510Z,25.60
2022-09-06T16:31:40.854Z,26.33
2022-09-06T16:34:09.555Z,23.40
2022-09-06T16:36:37.909Z,24.95
2022-09-06T16:39:06.636Z,26.25
2022-09-06T16:41:40.404Z,23.85
2022-09-06T16:44:09.523Z,26.73
2022-09-06T16:46:40.151Z,26.33
2022-09-06T16:49:08.746Z,22.33
2022-09-06T16:51:37.282Z,23.67
2022-09-06T16:54:06.025Z,23.40
2022-09-06T16:56:35.996Z,22.23
2022-09-06T16:59:06.405Z,24.52
2022-09-06T17:01:36.170Z,25.63
2022-09-06T17:04:07.431Z,22.10
2022-09-06T17:06:42.157Z,21.38
2022-09-06T17:09:10.519Z,25.60
2022-09-06T17:11:40.238Z,23.58
2022-09-06T17:14:08.737Z,24.15
2022-09-06T17:16:54.282Z,24.45
2022-09-06T17:19:23.917Z,22.98
2022-09-06T17:21:52.398Z,24.92
2022-09-06T17:24:20.729Z,23.83
2022-09-06T17:26:48.933Z,24.45
2022-09-06T17:29:17.159Z,22.55
2022-09-06T17:31:45.331Z,22.25
2022-09-06T17:34:13.562Z,21.40
2022-09-06T17:36:43.264Z,21.95
2022-09-06T17:39:13.809Z,21.02
2022-09-06T17:41:45.609Z,19.15
2022-09-06T17:44:15.243Z,21.38
2022-09-06T17:47:02.841Z,20.67
2022-09-06T17:49:32.402Z,20.08
2022-09-06T17:52:01.931Z,20.40
2022-09-06T17:54:31.750Z,19.75
2022-09-06T17:56:59.946Z,19.40
2022-09-06T17:59:32.836Z,22.60
2022-09-06T18:02:03.172Z,20.73
2022-09-06T18:04:31.438Z,20.65
2022-09-06T18:07:04.159Z,19.90
2022-09-06T18:09:32.283Z,20.45
2022-09-06T18:12:00.358Z,19.17
2022-09-06T18:14:29.164Z,18.83
2022-09-06T18:16:57.369Z,21.20
2022-09-06T18:19:26.219Z,19.00
2022-09-06T18:21:55.058Z,20.02
2022-09-06T18:24:24.816Z,18.02
2022-09-06T18:26:52.980Z,18.63
2022-09-06T18:29:21.676Z,20.23
2022-09-06T18:31:53.426Z,19.27
2022-09-06T18:34:22.072Z,18.45
2022-09-06T18:36:50.287Z,19.20
2022-09-06T18:39:19.035Z,19.08
2022-09-06T18:42:07.150Z,17.25
2022-09-06T18:44:36.394Z,18.08
2022-09-06T18:47:06.680Z,18.55
2022-09-06T18:49:35.637Z,18.95
2022-09-06T18:52:05.836Z,20.50
2022-09-06T18:54:34.741Z,18.80
2022-09-06T18:57:04.506Z,19.00
2022-09-06T18:59:32.930Z,19.27
2022-09-06T19:02:01.543Z,17.75
2022-09-06T19:04:29.868Z,19.15
2022-09-06T19:06:58.012Z,19.00
2022-09-06T19:09:26.142Z,18.13
2022-09-06T19:11:54.323Z,20.88
2022-09-06T19:14:23.971Z,20.00
2022-09-06T19:16:54.098Z,20.95
2022-09-06T19:19:23.188Z,16.63
2022-09-06T19:21:51.519Z,17.50
2022-09-06T19:24:22.580Z,18.45
2022-09-06T19:26:51.438Z,20.60
2022-09-06T19:29:20.756Z,18.63
2022-09-06T19:31:50.464Z,18.42
2022-09-06T19:34:19.040Z,18.40
2022-09-06T19:36:47.203Z,15.93
2022-09-06T19:39:17.298Z,18.48
2022-09-06T19:41:47.615Z,18.52
2022-09-06T19:44:16.983Z,19.50
2022-09-06T19:46:46.942Z,17.77
2022-09-06T19:49:19.217Z,17.13
2022-09-06T19:51:48.796Z,17.77
2022-09-06T19:54:17.623Z,18.13
2022-09-06T19:56:46.351Z,17.40
2022-09-06T19:59:15.911Z,18.15
2022-09-06T20:01:46.125Z,17.63
2022-09-06T20:04:17.098Z,18.27
2022-09-06T20:06:45.477Z,18.70
2022-09-06T20:09:15.896Z,16.02
2022-09-06T20:11:44.574Z,17.33
2022-09-06T20:14:13.497Z,17.67
2022-09-06T20:16:42.779Z,18.05
2022-09-06T20:19:12.257Z,15.93
2022-09-06T20:21:41.887Z,16.48
2022-09-06T20:24:10.339Z,16.83
2022-09-06T20:26:38.717Z,14.82
2022-09-06T20:29:07.967Z,16.13
2022-09-06T20:31:37.854Z,16.80
2022-09-06T20:34:07.089Z,19.13
2022-09-06T20:36:35.625Z,16.77
2022-09-06T20:39:05.833Z,16.83
2022-09-06T20:41:34.869Z,18.00
2022-09-06T20:44:03.720Z,15.45
2022-09-06T20:46:33.913Z,17.00
2022-09-06T20:49:04.758Z,16.40
2022-09-06T20:51:34.674Z,16.70
2022-09-06T20:54:06.050Z,17.45
2022-09-06T20:56:35.860Z,18.35
2022-09-06T20:59:09.157Z,16.02
2022-09-06T21:01:40.760Z,17.42
2022-09-06T21:04:10.743Z,16.67
2022-09-06T21:06:40.069Z,14.45
2022-09-06T21:09:11.888Z,17.25
2022-09-06T21:11:40.618Z,14.15
2022-09-06T21:14:09.698Z,15.65
2022-09-06T21:16:39.472Z,17.27
2022-09-06T21:19:09.563Z,15.68
2022-09-06T21:21:39.252Z,15.95
2022-09-06T21:24:10.306Z,15.90
2022-09-06T21:26:38.771Z,14.77
2022-09-06T21:29:07.205Z,13.93
2022-09-06T21:31:37.568Z,16.58
2022-09-06T21:34:07.375Z,15.23
2022-09-06T21:36:37.175Z,16.05
2022-09-06T21:39:07.159Z,16.85
2022-09-06T21:41:38.374Z,16.92
2022-09-06T21:44:08.218Z,15.80
2022-09-06T21:46:37.967Z,17.58
2022-09-06T21:49:08.237Z,15.93
2022-09-06T21:51:37.070Z,16.70
2022-09-06T21:54:06.090Z,16.50
2022-09-06T21:56:36.977Z,15.95
2022-09-06T21:59:06.052Z,16.55
2022-09-06T22:01:36.185Z,14.90
2022-09-06T22:04:04.928Z,17.00
2022-09-06T22:06:34.527Z,16.90
2022-09-06T22:09:05.972Z,15.10
2022-09-06T22:11:37.655Z,15.70
2022-09-06T22:14:09.225Z,14.55
2022-09-06T22:16:39.739Z,15.38
2022-09-06T22:19:08.970Z,14.20
2022-09-06T22:21:38.742Z,15.65
2022-09-06T22:24:09.095Z,15.35
2022-09-06T22:26:39.914Z,15.70
2022-09-06T22:29:09.858Z,13.73
2022-09-06T22:31:39.030Z,14.60
2022-09-06T22:34:07.562Z,14.25
2022-09-06T22:36:35.713Z,14.43
2022-09-06T22:39:04.223Z,16.40
2022-09-06T22:41:33.999Z,13.48
2022-09-06T22:44:05.050Z,16.45
2022-09-06T22:46:33.826Z,14.95
2022-09-06T22:49:02.502Z,15.15
2022-09-06T22:51:30.742Z,15.50
2022-09-06T22:53:58.882Z,15.85
2022-09-06T22:56:27.053Z,17.15
2022-09-06T22:58:55.170Z,14.82
2022-09-06T23:01:24.734Z,14.25
2022-09-06T23:03:53.040Z,16.38
2022-09-06T23:06:21.691Z,17.02
2022-09-06T23:08:49.872Z,15.85
2022-09-06T23:11:19.808Z,14.93
2022-09-06T23:13:47.932Z,14.38
2022-09-06T23:16:18.365Z,16.25
2022-09-06T23:18:48.447Z,15.45
2022-09-06T23:21:18.076Z,14.90
2022-09-06T23:23:47.584Z,14.02
2022-09-06T23:26:18.248Z,16.42
2022-09-06T23:28:46.684Z,17.25
2022-09-06T23:31:17.072Z,16.00
2022-09-06T23:33:45.497Z,14.65
2022-09-06T23:36:15.741Z,15.10
2022-09-06T23:38:44.309Z,17.80
2022-09-06T23:41:13.403Z,13.65
2022-09-06T23:43:43.043Z,15.68
2022-09-06T23:46:12.460Z,13.57
2022-09-06T23:48:41.006Z,15.95
2022-09-06T23:51:09.430Z,15.05
2022-09-06T23:53:39.421Z,15.98
2022-09-06T23:56:08.248Z,13.55
2022-09-06T23:58:36.843Z,15.32
